Time;durP1;ratioP1;P1;durP2;ratioP2;P2;SDS_P1;SDS_P2;PMS_P1;PMS_P2;Temp;Humidity;BMP_temperature;BMP_pressure;BME280_temperature;BME280_humidity;BME280_pressure;Samples;Min_cycle;Max_cycle;Signal;HPM_P1;HPM_P2
2020/12/07 00:02:25;;;;;;;0.90;0.67;;;4.10;99.90;;;;;;5090966;28;20681;-72
2020/12/07 00:04:51;;;;;;;16.93;3.23;;;4.00;99.90;;;;;;5090771;28;20205;-70
2020/12/07 00:07:18;;;;;;;1.53;1.10;;;4.00;99.90;;;;;;5090776;28;20333;-72
2020/12/07 00:09:45;;;;;;;1.40;1.00;;;4.00;99.90;;;;;;5090961;28;20237;-72
2020/12/07 00:12:11;;;;;;;2.90;1.17;;;4.00;99.90;;;;;;5090539;28;20240;-70
2020/12/07 00:14:37;;;;;;;1.87;1.37;;;4.00;99.90;;;;;;5089988;28;20643;-71
2020/12/07 00:17:04;;;;;;;1.27;0.80;;;4.10;99.90;;;;;;5090365;28;20318;-69
2020/12/07 00:19:30;;;;;;;2.20;1.57;;;4.20;99.90;;;;;;5090524;28;20241;-73
2020/12/07 00:21:57;;;;;;;1.37;1.17;;;4.20;99.90;;;;;;5090163;28;20206;-72
2020/12/07 00:24:24;;;;;;;1.53;1.07;;;4.30;99.90;;;;;;5090583;28;20248;-72
2020/12/07 00:26:50;;;;;;;2.10;1.03;;;4.30;99.90;;;;;;5090249;28;20259;-71
2020/12/07 00:29:17;;;;;;;0.77;0.67;;;4.30;99.90;;;;;;5090551;28;20206;-72
2020/12/07 00:31:43;;;;;;;2.00;1.03;;;4.40;99.90;;;;;;5090584;28;20676;-70
2020/12/07 00:34:10;;;;;;;2.70;1.10;;;4.40;99.90;;;;;;5089996;28;20239;-69
2020/12/07 00:36:36;;;;;;;1.50;1.03;;;4.50;99.90;;;;;;5090373;28;20279;-69
2020/12/07 00:39:03;;;;;;;1.43;0.90;;;4.50;99.90;;;;;;5090200;28;20209;-74
2020/12/07 00:41:30;;;;;;;2.63;0.93;;;4.50;99.90;;;;;;5089975;28;20684;-70
2020/12/07 00:43:56;;;;;;;1.10;0.90;;;4.40;99.90;;;;;;5091239;28;20318;-67
2020/12/07 00:46:23;;;;;;;1.93;0.90;;;4.40;99.90;;;;;;5094787;28;20244;-67
2020/12/07 00:48:49;;;;;;;1.57;0.80;;;4.20;99.90;;;;;;5094056;28;20285;-69
2020/12/07 00:51:18;;;;;;;1.77;0.93;;;4.10;99.90;;;;;;5094583;28;20205;-67
2020/12/07 00:53:45;;;;;;;2.53;1.23;;;4.00;99.90;;;;;;5094448;28;20690;-69
2020/12/07 00:56:13;;;;;;;1.40;1.10;;;4.00;99.90;;;;;;5094396;28;20260;-71
2020/12/07 00:58:40;;;;;;;1.73;1.30;;;4.10;99.90;;;;;;5094272;28;20206;-70
2020/12/07 01:01:06;;;;;;;2.13;1.47;;;4.30;99.90;;;;;;5094068;28;20205;-70
2020/12/07 01:03:33;;;;;;;1.90;0.83;;;4.40;99.90;;;;;;5094401;28;20206;-71
2020/12/07 01:05:59;;;;;;;0.93;0.80;;;4.50;99.90;;;;;;5093755;28;20608;-71
2020/12/07 01:08:26;;;;;;;0.97;0.87;;;4.40;99.90;;;;;;5093915;28;20672;-71
2020/12/07 01:10:55;;;;;;;1.53;1.13;;;4.40;99.90;;;;;;5093204;28;20209;-72
2020/12/07 01:13:21;;;;;;;2.57;1.23;;;4.50;99.90;;;;;;5094132;28;20673;-72
2020/12/07 01:15:49;;;;;;;2.63;1.00;;;4.60;99.90;;;;;;5093274;28;20282;-73
2020/12/07 01:18:16;;;;;;;1.93;1.30;;;4.70;99.90;;;;;;5094057;28;20251;-70
2020/12/07 01:20:42;;;;;;;2.17;1.30;;;4.70;99.90;;;;;;5094158;28;20258;-71
2020/12/07 01:23:09;;;;;;;2.73;1.47;;;4.80;99.90;;;;;;5093266;28;20201;-71
2020/12/07 01:25:35;;;;;;;2.10;1.00;;;4.80;99.90;;;;;;5093617;28;20304;-69
2020/12/07 01:28:02;;;;;;;2.60;1.10;;;4.80;99.90;;;;;;5092984;28;20231;-69
2020/12/07 01:30:28;;;;;;;1.27;0.60;;;4.80;99.90;;;;;;5093952;28;20197;-70
2020/12/07 01:32:55;;;;;;;1.17;0.87;;;4.80;99.90;;;;;;5093123;28;20326;-71
2020/12/07 01:35:22;;;;;;;2.53;0.93;;;4.70;99.90;;;;;;5093618;28;20276;-76
2020/12/07 01:37:48;;;;;;;2.63;1.00;;;4.70;99.90;;;;;;5093108;28;20202;-78
2020/12/07 01:40:15;;;;;;;1.97;0.90;;;4.70;99.90;;;;;;5093745;28;20623;-74
2020/12/07 01:42:41;;;;;;;1.00;0.70;;;4.60;99.90;;;;;;5093641;28;20746;-77
2020/12/07 01:45:08;;;;;;;1.60;0.67;;;4.60;99.90;;;;;;5092972;28;20712;-76
2020/12/07 01:47:34;;;;;;;1.07;0.90;;;4.60;99.90;;;;;;5093541;28;20205;-73
2020/12/07 01:50:02;;;;;;;2.67;1.47;;;4.60;99.90;;;;;;5092758;28;20221;-70
2020/12/07 01:52:28;;;;;;;1.27;1.00;;;4.70;99.90;;;;;;5092857;28;20263;-70
2020/12/07 01:54:55;;;;;;;2.83;1.10;;;4.70;99.90;;;;;;5092269;28;20240;-68
2020/12/07 01:57:21;;;;;;;1.73;1.10;;;4.70;99.90;;;;;;5092542;28;20295;-69
2020/12/07 01:59:48;;;;;;;2.17;1.60;;;4.70;99.90;;;;;;5092602;28;20593;-68
2020/12/07 02:02:14;;;;;;;2.20;1.13;;;4.70;99.90;;;;;;5093055;28;20209;-67
2020/12/07 02:04:41;;;;;;;3.33;1.60;;;4.70;99.90;;;;;;5093408;28;20209;-69
2020/12/07 02:07:16;;;;;;;2.70;1.40;;;4.80;99.90;;;;;;5092464;28;20596;-69
2020/12/07 02:09:43;;;;;;;1.53;1.20;;;4.90;99.90;;;;;;5093287;28;20258;-69
2020/12/07 02:12:09;;;;;;;1.50;1.00;;;4.80;99.90;;;;;;5092646;28;20202;-70
2020/12/07 02:14:36;;;;;;;2.73;2.00;;;4.90;99.90;;;;;;5092607;28;20209;-68
2020/12/07 02:17:03;;;;;;;1.63;1.00;;;4.80;99.90;;;;;;5092139;28;20644;-67
2020/12/07 02:19:29;;;;;;;2.50;1.50;;;4.80;99.90;;;;;;5092313;28;20198;-74
2020/12/07 02:21:56;;;;;;;2.87;1.20;;;4.80;99.90;;;;;;5092743;28;20295;-76
2020/12/07 02:24:23;;;;;;;1.20;1.10;;;4.80;99.90;;;;;;5092379;28;20236;-70
2020/12/07 02:26:49;;;;;;;1.60;1.17;;;4.70;99.90;;;;;;5092398;28;20750;-76
2020/12/07 02:29:16;;;;;;;2.07;1.30;;;4.60;99.90;;;;;;5092877;28;20292;-69
2020/12/07 02:31:42;;;;;;;1.40;1.20;;;4.60;99.90;;;;;;5092671;28;20306;-74
2020/12/07 02:34:08;;;;;;;2.00;1.40;;;4.50;99.90;;;;;;5092242;28;20681;-75
2020/12/07 02:36:35;;;;;;;1.47;1.00;;;4.50;99.90;;;;;;5092134;28;20744;-75
2020/12/07 02:39:02;;;;;;;1.33;0.97;;;4.50;99.90;;;;;;5091855;28;20205;-74
2020/12/07 02:41:29;;;;;;;1.50;1.10;;;4.50;99.90;;;;;;5092285;28;20615;-76
2020/12/07 02:43:55;;;;;;;2.63;1.33;;;4.50;99.90;;;;;;5091717;28;20205;-75
2020/12/07 02:46:22;;;;;;;1.47;1.00;;;4.50;99.90;;;;;;5092356;28;20250;-71
2020/12/07 02:48:48;;;;;;;2.80;1.43;;;4.50;99.90;;;;;;5091408;28;20624;-70
2020/12/07 02:51:14;;;;;;;1.20;1.10;;;4.50;99.90;;;;;;5092573;28;20237;-72
2020/12/07 02:53:41;;;;;;;1.30;1.10;;;4.60;99.90;;;;;;5092175;28;20210;-73
2020/12/07 02:56:08;;;;;;;2.37;1.37;;;4.70;99.90;;;;;;5091613;28;20439;-71
2020/12/07 02:58:35;;;;;;;2.10;1.30;;;4.70;99.90;;;;;;5092115;28;20380;-76
2020/12/07 03:01:01;;;;;;;2.33;1.70;;;4.70;99.90;;;;;;5091373;28;20284;-71
2020/12/07 03:03:27;;;;;;;2.60;1.93;;;4.60;99.90;;;;;;5091774;28;20625;-73
2020/12/07 03:05:54;;;;;;;2.53;1.43;;;4.60;99.90;;;;;;5091360;28;20205;-75
2020/12/07 03:08:20;;;;;;;2.43;1.43;;;4.60;99.90;;;;;;5091662;28;20654;-73
2020/12/07 03:10:46;;;;;;;2.17;1.50;;;4.50;99.90;;;;;;5091729;28;20223;-68
2020/12/07 03:13:14;;;;;;;2.60;1.57;;;4.50;99.90;;;;;;5092105;28;20209;-70
2020/12/07 03:15:40;;;;;;;2.47;1.37;;;4.50;99.90;;;;;;5091713;28;20237;-69
2020/12/07 03:18:07;;;;;;;3.67;1.77;;;4.50;99.90;;;;;;5091348;28;20255;-71
2020/12/07 03:20:33;;;;;;;2.80;1.70;;;4.50;99.90;;;;;;5091492;28;20734;-69
2020/12/07 03:22:59;;;;;;;3.37;1.63;;;4.50;99.90;;;;;;5090992;28;20255;-71
2020/12/07 03:25:26;;;;;;;2.27;1.37;;;4.50;99.90;;;;;;5091752;28;20258;-68
2020/12/07 03:27:52;;;;;;;1.67;1.30;;;4.60;99.90;;;;;;5090816;28;20202;-68
2020/12/07 03:30:20;;;;;;;2.07;1.80;;;4.70;99.90;;;;;;5091598;28;20259;-69
2020/12/07 03:32:46;;;;;;;2.70;1.70;;;4.70;99.90;;;;;;5084236;28;20203;-69
2020/12/07 03:35:12;;;;;;;1.67;1.43;;;4.60;99.90;;;;;;5065892;28;20213;-70
2020/12/07 03:37:39;;;;;;;3.47;2.43;;;4.60;99.90;;;;;;5070917;28;20259;-69
2020/12/07 03:40:05;;;;;;;2.40;2.20;;;4.50;99.90;;;;;;5070587;28;20373;-69
2020/12/07 03:42:32;;;;;;;3.70;2.27;;;4.50;99.90;;;;;;5070628;28;20307;-69
2020/12/07 03:44:58;;;;;;;3.27;2.07;;;4.40;99.90;;;;;;5070694;28;20264;-69
2020/12/07 03:47:25;;;;;;;2.57;2.20;;;4.40;99.90;;;;;;5071292;28;20252;-68
2020/12/07 03:49:52;;;;;;;2.77;1.63;;;4.40;99.90;;;;;;5070405;28;20251;-72
2020/12/07 03:52:18;;;;;;;1.83;1.30;;;4.30;99.90;;;;;;5070363;28;20268;-73
2020/12/07 03:54:45;;;;;;;2.13;1.47;;;4.20;99.90;;;;;;5070893;28;20701;-72
2020/12/07 03:57:11;;;;;;;2.93;1.47;;;4.00;99.90;;;;;;5070453;28;20283;-75
2020/12/07 03:59:38;;;;;;;3.27;1.50;;;3.90;99.90;;;;;;5070742;28;20673;-72
2020/12/07 04:02:04;;;;;;;3.33;2.57;;;3.80;99.90;;;;;;5070157;28;20228;-74
2020/12/07 04:04:39;;;;;;;2.53;1.87;;;3.70;99.90;;;;;;5070951;28;20260;-75
2020/12/07 04:07:06;;;;;;;2.73;2.07;;;3.60;99.90;;;;;;5069845;28;20213;-74
2020/12/07 04:09:32;;;;;;;2.87;1.57;;;3.60;99.90;;;;;;5070420;28;20209;-75
2020/12/07 04:11:59;;;;;;;2.20;1.53;;;3.50;99.90;;;;;;5070060;28;20206;-71
2020/12/07 04:14:25;;;;;;;4.67;1.57;;;3.50;99.90;;;;;;5070411;28;20584;-72
2020/12/07 04:16:52;;;;;;;2.37;1.60;;;3.50;99.90;;;;;;5070255;28;20307;-73
2020/12/07 04:19:18;;;;;;;2.60;1.13;;;3.40;99.90;;;;;;5069775;28;20634;-74
2020/12/07 04:21:45;;;;;;;1.67;1.53;;;3.40;99.90;;;;;;5070902;28;20245;-73
2020/12/07 04:24:12;;;;;;;2.03;1.30;;;3.40;99.90;;;;;;5070435;28;20210;-71
2020/12/07 04:26:38;;;;;;;2.93;1.40;;;3.40;99.90;;;;;;5070367;28;20218;-73
2020/12/07 04:29:05;;;;;;;1.90;1.30;;;3.50;99.90;;;;;;5069897;28;20206;-72
2020/12/07 04:31:31;;;;;;;1.80;1.43;;;3.70;99.90;;;;;;5070314;28;20267;-69
2020/12/07 04:33:57;;;;;;;2.10;1.50;;;3.90;99.90;;;;;;5069799;28;20565;-70
2020/12/07 04:36:24;;;;;;;2.90;1.77;;;3.90;99.90;;;;;;5070057;28;20285;-70
2020/12/07 04:38:51;;;;;;;2.77;1.13;;;4.00;99.90;;;;;;5070134;28;20240;-70
2020/12/07 04:41:18;;;;;;;1.03;0.90;;;4.00;99.90;;;;;;5069922;28;20250;-68
2020/12/07 04:43:44;;;;;;;1.90;1.30;;;4.00;99.90;;;;;;5070874;28;20205;-70
2020/12/07 04:46:11;;;;;;;1.63;1.17;;;3.90;99.90;;;;;;5070574;28;20213;-69
2020/12/07 04:48:41;;;;;;;1.30;0.87;;;3.90;99.90;;;;;;5070085;28;20248;-69
2020/12/07 04:51:08;;;;;;;1.37;1.07;;;3.80;99.90;;;;;;5069831;28;20206;-71
2020/12/07 04:53:35;;;;;;;1.33;0.90;;;3.80;99.90;;;;;;5069792;28;20747;-71
2020/12/07 04:56:03;;;;;;;1.17;0.93;;;3.80;99.90;;;;;;5069918;28;20233;-70
2020/12/07 04:58:29;;;;;;;1.60;1.20;;;3.70;99.90;;;;;;5070074;28;20264;-74
2020/12/07 05:00:55;;;;;;;1.43;1.00;;;3.70;99.90;;;;;;5069804;28;20677;-74
2020/12/07 05:03:22;;;;;;;2.53;1.43;;;3.70;99.90;;;;;;5069824;28;20743;-70
2020/12/07 05:05:52;;;;;;;2.43;1.70;;;3.70;99.90;;;;;;5069762;28;20206;-74
2020/12/07 05:08:18;;;;;;;1.50;1.40;;;3.70;99.90;;;;;;5070365;28;20214;-73
2020/12/07 05:10:46;;;;;;;1.60;1.50;;;3.70;99.90;;;;;;5069999;28;20665;-72
2020/12/07 05:13:21;;;;;;;1.90;1.70;;;3.70;99.90;;;;;;5070541;28;20623;-71
2020/12/07 05:15:48;;;;;;;1.60;1.47;;;3.60;99.90;;;;;;5069265;28;20230;-69
2020/12/07 05:18:15;;;;;;;3.93;1.93;;;3.60;99.90;;;;;;5069981;28;20628;-72
2020/12/07 05:20:41;;;;;;;2.67;2.47;;;3.60;99.90;;;;;;5069913;28;20260;-73
2020/12/07 05:23:08;;;;;;;3.20;2.93;;;3.60;99.90;;;;;;5069857;28;20263;-72
2020/12/07 05:25:35;;;;;;;3.27;3.00;;;3.70;99.90;;;;;;5069584;28;20739;-71
2020/12/07 05:28:07;;;;;;;4.47;3.60;;;3.70;99.90;;;;;;5069361;28;20767;-71
2020/12/07 05:30:39;;;;;;;3.37;3.10;;;3.60;99.90;;;;;;5070579;28;20209;-70
2020/12/07 05:33:06;;;;;;;3.30;2.80;;;3.60;99.90;;;;;;5072700;28;20234;-70
2020/12/07 05:35:37;;;;;;;4.33;2.43;;;3.70;99.90;;;;;;5073537;28;20209;-69
2020/12/07 05:38:04;;;;;;;2.20;2.00;;;3.60;99.90;;;;;;5072904;28;20206;-71
2020/12/07 05:40:31;;;;;;;2.47;1.67;;;3.60;99.90;;;;;;5073310;28;20720;-69
2020/12/07 05:42:58;;;;;;;1.30;1.20;;;3.80;99.90;;;;;;5073008;28;20206;-69
2020/12/07 05:45:26;;;;;;;2.07;1.50;;;3.80;99.90;;;;;;5073247;28;20202;-70
2020/12/07 05:47:54;;;;;;;3.40;1.60;;;3.80;99.90;;;;;;5072769;28;20244;-70
2020/12/07 05:50:21;;;;;;;1.73;1.30;;;3.80;99.90;;;;;;5072761;28;20685;-70
2020/12/07 05:52:49;;;;;;;1.97;1.30;;;3.70;99.90;;;;;;5072710;28;20206;-72
2020/12/07 05:55:17;;;;;;;1.53;1.20;;;3.80;99.90;;;;;;5072977;28;20255;-69
2020/12/07 05:57:49;;;;;;;2.20;1.47;;;3.70;99.90;;;;;;5073181;28;20280;-71
2020/12/07 06:00:23;;;;;;;1.40;1.30;;;3.70;99.90;;;;;;5072495;28;20237;-69
2020/12/07 06:02:54;;;;;;;6.03;1.20;;;3.80;99.90;;;;;;5072340;28;20252;-69
2020/12/07 06:05:22;;;;;;;1.63;1.20;;;3.80;99.90;;;;;;5072513;28;20210;-69
2020/12/07 06:07:55;;;;;;;1.40;1.30;;;3.80;99.90;;;;;;5072709;28;20241;-73
2020/12/07 06:10:24;;;;;;;1.57;1.10;;;3.80;99.90;;;;;;5072537;28;20220;-74
2020/12/07 06:12:53;;;;;;;3.33;1.50;;;3.80;99.90;;;;;;5072300;28;20238;-72
2020/12/07 06:15:21;;;;;;;1.53;1.03;;;3.90;99.90;;;;;;5072453;28;20295;-69
2020/12/07 06:17:48;;;;;;;2.80;1.77;;;4.00;99.90;;;;;;5072450;28;20291;-68
2020/12/07 06:20:31;;;;;;;1.50;1.20;;;3.90;99.90;;;;;;5072977;28;20206;-73
2020/12/07 06:22:58;;;;;;;57.77;33.63;;;3.90;99.90;;;;;;5059423;28;20256;-69
2020/12/07 06:25:29;;;;;;;40.67;23.90;;;3.90;99.90;;;;;;5072407;28;20234;-68
2020/12/07 06:27:59;;;;;;;21.30;15.40;;;3.90;99.90;;;;;;5072180;28;20206;-69
2020/12/07 06:30:31;;;;;;;25.63;23.13;;;3.80;99.90;;;;;;5072986;28;20206;-71
2020/12/07 06:33:03;;;;;;;5.40;4.40;;;3.80;99.90;;;;;;5067813;28;20205;-72
2020/12/07 06:35:30;;;;;;;4.83;4.17;;;3.80;99.90;;;;;;5089127;28;20206;-70
2020/12/07 06:38:02;;;;;;;3.37;3.00;;;3.90;99.90;;;;;;5089446;28;20397;-71
2020/12/07 06:40:30;;;;;;;2.87;2.07;;;3.90;99.90;;;;;;5091310;28;20197;-72
2020/12/07 06:42:57;;;;;;;5.27;3.37;;;4.00;99.90;;;;;;5075779;28;20205;-70
2020/12/07 06:45:29;;;;;;;8.43;5.93;;;4.00;99.90;;;;;;5078052;28;20201;-71
2020/12/07 06:47:55;;;;;;;5.67;4.17;;;4.00;99.90;;;;;;5086099;28;20210;-71
2020/12/07 06:50:26;;;;;;;5.97;4.90;;;3.90;99.90;;;;;;5088588;28;20251;-70
2020/12/07 06:52:54;;;;;;;7.17;6.47;;;3.90;99.90;;;;;;5090167;28;20202;-70
2020/12/07 06:55:20;;;;;;;5.70;5.23;;;3.90;99.90;;;;;;5087690;28;20255;-71
2020/12/07 06:57:48;;;;;;;8.77;8.07;;;3.90;99.90;;;;;;5089391;28;20233;-71
2020/12/07 07:00:17;;;;;;;4.07;3.73;;;3.90;99.90;;;;;;5085828;28;20229;-69
2020/12/07 07:02:45;;;;;;;6.53;5.40;;;3.90;99.90;;;;;;5088810;28;20294;-70
2020/12/07 07:05:12;;;;;;;6.10;5.60;;;3.90;99.90;;;;;;5083658;28;20202;-70
2020/12/07 07:07:40;;;;;;;4.40;4.00;;;3.90;99.90;;;;;;5087776;28;20245;-70
2020/12/07 07:10:09;;;;;;;3.80;3.33;;;3.90;99.90;;;;;;5082472;28;20290;-70
2020/12/07 07:12:36;;;;;;;13.37;8.97;;;3.90;99.90;;;;;;5086307;28;20695;-69
2020/12/07 07:15:04;;;;;;;28.57;24.33;;;3.90;99.90;;;;;;5080862;28;20222;-70
2020/12/07 07:17:33;;;;;;;33.37;29.47;;;3.80;99.90;;;;;;5083517;28;20233;-71
2020/12/07 07:20:01;;;;;;;9.17;7.73;;;3.80;99.90;;;;;;5080892;28;20565;-69
2020/12/07 07:22:28;;;;;;;5.30;4.73;;;3.80;99.90;;;;;;5081118;28;20259;-71
2020/12/07 07:25:04;;;;;;;4.37;3.37;;;3.80;99.90;;;;;;5075018;28;20571;-71
2020/12/07 07:30:17;;;;;;;4.73;3.00;;;3.90;99.90;;;;;;5074560;28;20259;-70
2020/12/07 07:32:44;;;;;;;6.10;5.50;;;4.10;99.90;;;;;;5080378;28;20201;-72
2020/12/07 07:35:12;;;;;;;3.43;2.83;;;4.00;99.90;;;;;;5056894;28;20679;-72
2020/12/07 07:37:39;;;;;;;4.63;3.77;;;4.00;99.90;;;;;;5065065;28;20794;-72
2020/12/07 07:40:07;;;;;;;4.53;3.17;;;4.00;99.90;;;;;;5061325;28;20261;-71
2020/12/07 07:42:40;;;;;;;3.10;2.33;;;4.00;99.90;;;;;;5064437;28;20256;-71
2020/12/07 07:45:07;;;;;;;3.17;2.87;;;3.90;99.90;;;;;;5075389;28;20250;-71
2020/12/07 07:47:41;;;;;;;2.60;2.40;;;3.90;99.90;;;;;;5074153;28;20233;-71
2020/12/07 08:15:31;;;;;;;4.93;3.90;;;4.40;99.90;;;;;;5081946;28;20216;-70
2020/12/07 08:17:59;;;;;;;8.73;7.43;;;4.40;99.90;;;;;;5063485;28;20702;-72
2020/12/07 08:20:29;;;;;;;8.57;7.63;;;4.50;99.90;;;;;;5078245;28;20391;-71
2020/12/07 08:22:57;;;;;;;8.67;3.87;;;4.50;99.90;;;;;;5084394;28;20213;-71
2020/12/07 08:25:50;;;;;;;4.80;3.23;;;4.60;99.90;;;;;;5078064;28;20252;-68
2020/12/07 08:28:27;;;;;;;5.43;3.63;;;4.70;99.90;;;;;;5076435;28;20208;-72
2020/12/07 08:31:04;;;;;;;5.50;3.03;;;4.60;99.90;;;;;;5080254;28;20209;-71
2020/12/07 08:33:32;;;;;;;7.33;6.57;;;4.70;99.90;;;;;;5071219;28;20213;-74
2020/12/07 08:35:59;;;;;;;6.67;4.77;;;4.90;99.90;;;;;;5063937;28;20211;-72
2020/12/07 08:38:30;;;;;;;8.60;7.07;;;4.90;99.90;;;;;;5079811;28;20237;-71
2020/12/07 08:41:11;;;;;;;7.97;6.17;;;5.00;99.90;;;;;;5079953;28;20202;-71
2020/12/07 08:43:41;;;;;;;44.87;39.97;;;5.10;99.90;;;;;;5068066;28;20208;-67
2020/12/07 08:46:10;;;;;;;8.30;7.47;;;5.10;99.90;;;;;;5062506;28;20267;-67
2020/12/07 08:48:38;;;;;;;4.67;3.47;;;5.20;99.90;;;;;;5074934;28;20723;-72
2020/12/07 08:51:05;;;;;;;6.63;5.20;;;5.20;99.90;;;;;;5079389;28;20206;-68
2020/12/07 08:53:31;;;;;;;8.60;6.93;;;5.20;99.90;;;;;;5063581;28;20214;-69
2020/12/07 08:55:58;;;;;;;10.30;8.63;;;5.20;99.90;;;;;;5066354;28;20210;-70
2020/12/07 08:58:24;;;;;;;9.53;4.77;;;5.30;99.90;;;;;;5067360;28;20740;-71
2020/12/07 09:00:51;;;;;;;5.47;3.67;;;5.30;99.90;;;;;;5066795;28;20616;-71
2020/12/07 09:03:18;;;;;;;6.30;3.67;;;5.30;99.90;;;;;;5067786;28;20202;-69
2020/12/07 09:05:45;;;;;;;5.60;4.33;;;5.50;99.90;;;;;;5062153;28;20206;-71
2020/12/07 09:08:11;;;;;;;9.30;5.90;;;5.40;99.90;;;;;;5063540;28;20252;-72
2020/12/07 09:10:38;;;;;;;7.00;5.13;;;5.60;99.90;;;;;;5076106;28;20198;-68
2020/12/07 09:13:04;;;;;;;7.77;5.10;;;5.80;99.90;;;;;;5072594;28;20711;-73
2020/12/07 09:15:31;;;;;;;9.10;5.20;;;5.80;99.90;;;;;;5062014;28;20650;-68
2020/12/07 09:17:58;;;;;;;7.10;3.43;;;5.70;99.90;;;;;;5066192;28;20265;-69
2020/12/07 09:20:25;;;;;;;5.60;3.60;;;5.70;99.90;;;;;;5065181;28;20207;-72
2020/12/07 09:22:52;;;;;;;6.93;4.17;;;5.80;99.90;;;;;;5071791;28;20206;-70
2020/12/07 09:25:18;;;;;;;6.50;3.50;;;5.80;99.90;;;;;;5068602;28;20203;-67
2020/12/07 09:27:45;;;;;;;5.43;3.93;;;5.80;99.90;;;;;;5083144;28;20202;-70
2020/12/07 09:30:11;;;;;;;11.77;7.60;;;5.80;99.90;;;;;;5079941;28;20279;-73
2020/12/07 09:32:38;;;;;;;15.53;8.97;;;5.70;99.90;;;;;;5080846;28;20216;-71
2020/12/07 09:35:08;;;;;;;24.30;14.13;;;5.60;99.90;;;;;;5078539;28;20206;-73
2020/12/07 09:37:36;;;;;;;51.03;34.13;;;5.50;99.90;;;;;;5077870;28;20771;-73
2020/12/07 09:40:04;;;;;;;10.93;8.23;;;5.40;99.90;;;;;;5076617;28;20237;-72
2020/12/07 09:42:31;;;;;;;13.30;8.03;;;5.30;99.90;;;;;;5075906;28;20210;-70
2020/12/07 09:44:58;;;;;;;20.87;15.20;;;5.40;99.90;;;;;;5088746;28;20202;-73
2020/12/07 09:47:24;;;;;;;20.93;15.57;;;5.40;99.90;;;;;;5092490;28;20237;-68
2020/12/07 09:49:50;;;;;;;41.40;28.77;;;5.30;99.90;;;;;;5089823;28;20262;-73
2020/12/07 09:52:17;;;;;;;22.63;15.83;;;5.30;99.90;;;;;;5091782;28;20314;-71
2020/12/07 09:54:46;;;;;;;14.97;7.80;;;5.40;99.90;;;;;;5089898;28;20275;-68
2020/12/07 09:57:12;;;;;;;9.30;6.33;;;5.40;99.90;;;;;;5069376;28;20225;-73
2020/12/07 09:59:39;;;;;;;11.40;9.30;;;5.20;99.90;;;;;;5091327;28;20283;-72
2020/12/07 10:02:05;;;;;;;10.23;7.30;;;5.30;99.90;;;;;;5081724;28;20237;-73
2020/12/07 10:04:32;;;;;;;17.63;13.83;;;5.20;99.90;;;;;;5090518;28;20197;-74
2020/12/07 10:06:58;;;;;;;19.50;12.67;;;5.30;99.90;;;;;;5086162;28;20209;-71
2020/12/07 10:09:25;;;;;;;13.03;10.00;;;5.30;99.90;;;;;;5076852;28;20233;-71
2020/12/07 10:11:52;;;;;;;11.43;9.00;;;5.30;99.90;;;;;;5073254;28;20206;-74
2020/12/07 10:14:19;;;;;;;16.80;13.37;;;5.40;99.90;;;;;;5083223;28;20676;-71
2020/12/07 10:16:45;;;;;;;23.73;17.60;;;5.40;99.90;;;;;;5070321;28;20230;-72
2020/12/07 10:19:12;;;;;;;9.33;8.00;;;5.40;99.90;;;;;;5084246;28;20201;-71
2020/12/07 10:21:39;;;;;;;12.80;9.97;;;5.40;99.90;;;;;;5092634;28;20205;-74
2020/12/07 10:24:06;;;;;;;11.73;8.93;;;5.40;99.90;;;;;;5090373;28;20727;-74
2020/12/07 10:26:33;;;;;;;7.70;6.90;;;5.50;99.90;;;;;;5078127;28;20315;-71
2020/12/07 10:29:01;;;;;;;13.03;9.00;;;5.40;99.90;;;;;;5085150;28;20741;-75
2020/12/07 10:31:27;;;;;;;14.07;10.03;;;5.50;99.90;;;;;;5091219;28;20255;-73
2020/12/07 10:33:54;;;;;;;19.43;13.30;;;5.50;99.90;;;;;;5090539;28;20239;-72
2020/12/07 10:36:21;;;;;;;8.87;5.10;;;5.60;99.90;;;;;;5079853;28;20621;-70
2020/12/07 10:38:48;;;;;;;9.80;5.60;;;5.70;99.90;;;;;;5067903;28;20210;-68
2020/12/07 10:41:15;;;;;;;8.67;5.80;;;5.80;99.90;;;;;;5082159;28;20288;-73
2020/12/07 10:43:42;;;;;;;4.30;2.50;;;5.80;99.90;;;;;;5060410;28;20681;-74
2020/12/07 10:46:11;;;;;;;4.23;2.87;;;5.80;99.90;;;;;;5077183;28;20266;-74
2020/12/07 10:48:38;;;;;;;8.20;3.47;;;5.80;99.90;;;;;;5077443;28;20240;-74
2020/12/07 10:51:04;;;;;;;6.37;4.27;;;5.90;99.90;;;;;;5075631;28;20580;-74
2020/12/07 10:53:31;;;;;;;2.50;2.00;;;5.80;99.90;;;;;;5078229;28;20209;-73
2020/12/07 10:55:57;;;;;;;1.77;1.63;;;5.80;99.90;;;;;;5081614;28;20198;-72
2020/12/07 10:58:23;;;;;;;2.33;1.30;;;5.70;99.90;;;;;;5074437;28;20744;-73
2020/12/07 11:00:51;;;;;;;1.70;1.30;;;5.70;99.90;;;;;;5071694;28;20240;-74
2020/12/07 11:03:19;;;;;;;5.07;3.03;;;5.70;99.90;;;;;;5065792;28;20689;-74
2020/12/07 11:05:45;;;;;;;6.87;2.77;;;5.70;99.90;;;;;;5080854;28;20254;-74
2020/12/07 11:08:18;;;;;;;4.50;2.47;;;5.80;99.90;;;;;;5070915;28;20233;-75
2020/12/07 11:10:44;;;;;;;2.37;1.70;;;5.80;99.90;;;;;;5077913;28;20198;-72
2020/12/07 11:13:23;;;;;;;2.70;1.90;;;5.80;99.90;;;;;;5073067;28;20206;-74
2020/12/07 11:15:49;;;;;;;6.23;2.40;;;5.80;99.90;;;;;;5074666;28;20223;-72
2020/12/07 11:18:16;;;;;;;4.10;1.43;;;5.80;99.90;;;;;;5069362;28;20274;-68
2020/12/07 11:20:43;;;;;;;5.87;1.37;;;5.70;99.90;;;;;;5073065;28;20256;-71
2020/12/07 11:23:10;;;;;;;4.50;2.70;;;5.70;99.90;;;;;;5077358;28;20642;-73
2020/12/07 11:25:36;;;;;;;4.33;2.50;;;5.70;99.90;;;;;;5061752;28;20246;-74
2020/12/07 11:28:03;;;;;;;2.70;1.03;;;5.70;99.90;;;;;;5076078;28;20218;-74
2020/12/07 11:30:30;;;;;;;2.17;1.60;;;5.70;99.90;;;;;;5073309;28;20249;-70
2020/12/07 11:32:56;;;;;;;2.03;1.30;;;5.70;99.90;;;;;;5076496;28;20237;-70
2020/12/07 11:35:23;;;;;;;2.37;1.90;;;5.70;99.90;;;;;;5073149;28;20266;-74
2020/12/07 11:37:55;;;;;;;14.17;7.00;;;5.70;99.90;;;;;;5072481;28;20264;-73
2020/12/07 11:40:31;;;;;;;3.50;2.20;;;5.70;99.90;;;;;;5062752;28;20647;-74
2020/12/07 11:43:05;;;;;;;6.13;4.07;;;5.70;99.90;;;;;;5072794;28;20202;-74
2020/12/07 11:45:31;;;;;;;7.73;6.77;;;5.70;99.90;;;;;;5066228;28;20205;-75
2020/12/07 11:47:58;;;;;;;2.93;2.33;;;5.80;99.90;;;;;;5078483;28;20248;-75
2020/12/07 11:50:24;;;;;;;2.80;2.17;;;5.70;99.90;;;;;;5082188;28;20258;-75
2020/12/07 11:52:52;;;;;;;3.50;2.20;;;5.70;99.90;;;;;;5077901;28;20252;-71
2020/12/07 11:55:18;;;;;;;4.67;3.20;;;5.70;99.90;;;;;;5081672;28;20233;-74
2020/12/07 11:57:45;;;;;;;8.57;6.90;;;5.70;99.90;;;;;;5070593;28;20620;-75
2020/12/07 12:00:13;;;;;;;4.00;3.20;;;5.70;99.90;;;;;;5076885;28;20202;-74
2020/12/07 12:02:39;;;;;;;3.00;1.70;;;5.80;99.90;;;;;;5077550;28;20202;-74
2020/12/07 12:05:05;;;;;;;5.30;2.33;;;5.80;99.90;;;;;;5074833;28;20214;-73
2020/12/07 12:07:32;;;;;;;3.17;2.20;;;5.70;99.90;;;;;;5077827;28;20241;-74
2020/12/07 12:09:59;;;;;;;4.07;2.20;;;5.80;99.90;;;;;;5074641;28;20264;-73
2020/12/07 12:12:26;;;;;;;2.50;1.87;;;5.90;99.90;;;;;;5079560;28;20233;-72
2020/12/07 12:14:53;;;;;;;2.70;1.30;;;6.00;99.90;;;;;;5074770;28;20231;-73
2020/12/07 12:17:19;;;;;;;3.17;2.87;;;6.00;99.90;;;;;;5065746;28;20233;-74
2020/12/07 12:19:46;;;;;;;2.43;1.90;;;6.10;99.90;;;;;;5077286;28;20235;-68
2020/12/07 12:22:12;;;;;;;4.73;3.80;;;6.20;99.90;;;;;;5068430;28;20221;-74
2020/12/07 12:24:39;;;;;;;3.07;1.87;;;6.10;99.90;;;;;;5076098;28;20676;-72
2020/12/07 12:27:06;;;;;;;2.63;1.70;;;6.20;99.90;;;;;;5072989;28;20206;-73
2020/12/07 12:29:32;;;;;;;3.73;1.83;;;6.30;99.90;;;;;;5076984;28;20631;-71
2020/12/07 12:31:59;;;;;;;2.33;1.80;;;6.30;99.90;;;;;;5074833;28;20202;-73
2020/12/07 12:34:25;;;;;;;3.80;2.77;;;6.30;99.90;;;;;;5078021;28;20255;-73
2020/12/07 12:36:51;;;;;;;2.23;1.90;;;6.30;99.90;;;;;;5075281;28;20242;-75
2020/12/07 12:39:18;;;;;;;4.37;2.33;;;6.30;99.90;;;;;;5066634;28;20207;-74
2020/12/07 12:41:45;;;;;;;3.00;2.20;;;6.50;99.90;;;;;;5079125;28;20202;-72
2020/12/07 12:44:12;;;;;;;2.47;1.77;;;6.50;99.90;;;;;;5083971;28;20209;-72
2020/12/07 12:46:39;;;;;;;3.20;1.83;;;6.50;99.90;;;;;;5091966;28;20201;-72
2020/12/07 12:49:06;;;;;;;3.43;3.13;;;6.50;99.90;;;;;;5093185;28;20753;-72
2020/12/07 12:51:32;;;;;;;4.13;2.20;;;6.50;99.90;;;;;;5090737;28;20582;-72
2020/12/07 12:53:59;;;;;;;3.50;1.90;;;6.50;99.90;;;;;;5092815;28;20201;-72
2020/12/07 12:56:26;;;;;;;3.27;1.80;;;6.60;99.90;;;;;;5092323;28;20209;-73
2020/12/07 12:58:52;;;;;;;2.63;1.90;;;6.60;99.90;;;;;;5090466;28;20202;-73
2020/12/07 13:01:20;;;;;;;3.53;1.70;;;6.80;99.90;;;;;;5091976;28;20227;-72
2020/12/07 13:03:47;;;;;;;1.10;1.00;;;6.80;99.90;;;;;;5088821;28;20216;-72
2020/12/07 13:06:15;;;;;;;2.80;1.50;;;6.90;99.90;;;;;;5090597;28;20209;-71
2020/12/07 13:08:43;;;;;;;2.40;1.70;;;6.80;99.90;;;;;;5086114;28;20211;-73
2020/12/07 13:11:10;;;;;;;1.97;1.20;;;6.70;99.90;;;;;;5087485;28;20263;-73
2020/12/07 13:13:37;;;;;;;3.50;2.43;;;6.70;99.90;;;;;;5080798;28;20214;-73
2020/12/07 13:16:07;;;;;;;4.13;2.27;;;6.70;99.90;;;;;;5080601;28;20219;-71
2020/12/07 13:18:41;;;;;;;2.53;1.60;;;6.70;99.90;;;;;;5072034;28;20237;-75
2020/12/07 13:21:13;;;;;;;2.27;1.30;;;6.70;99.90;;;;;;5072449;28;20208;-71
2020/12/07 13:23:44;;;;;;;2.77;1.70;;;6.60;99.90;;;;;;5079768;28;20214;-74
2020/12/07 13:26:17;;;;;;;4.17;2.00;;;6.60;99.90;;;;;;5081566;28;20678;-73